sensor_id;sensor_type;location;lat;lon;timestamp;P1;durP1;ratioP1;P2;durP2;ratioP2
32329;SDS011;18807;52.434;13.238;2023-08-21T00:05:01;12.47;;;9.13;;
32329;SDS011;18807;52.434;13.238;2023-08-21T00:20:40;13.93;;;10.63;;
32329;SDS011;18807;52.434;13.238;2023-08-21T00:28:29;12.45;;;10.57;;
32329;SDS011;18807;52.434;13.238;2023-08-21T00:44:35;12.05;;;10.00;;
32329;SDS011;18807;52.434;13.238;2023-08-21T00:52:31;12.32;;;9.55;;
32329;SDS011;18807;52.434;13.238;2023-08-21T01:00:16;12.30;;;9.85;;
32329;SDS011;18807;52.434;13.238;2023-08-21T01:07:59;12.77;;;9.75;;
32329;SDS011;18807;52.434;13.238;2023-08-21T01:24:29;13.07;;;9.32;;
32329;SDS011;18807;52.434;13.238;2023-08-21T01:49:08;12.15;;;10.60;;
32329;SDS011;18807;52.434;13.238;2023-08-21T02:14:02;14.77;;;10.23;;
32329;SDS011;18807;52.434;13.238;2023-08-21T02:30:01;16.17;;;11.47;;
32329;SDS011;18807;52.434;13.238;2023-08-21T02:37:49;16.00;;;10.85;;
32329;SDS011;18807;52.434;13.238;2023-08-21T02:45:35;14.85;;;10.57;;
32329;SDS011;18807;52.434;13.238;2023-08-21T02:53:24;13.88;;;10.10;;
32329;SDS011;18807;52.434;13.238;2023-08-21T03:01:00;10.90;;;9.80;;
32329;SDS011;18807;52.434;13.238;2023-08-21T03:08:45;13.77;;;10.13;;
32329;SDS011;18807;52.434;13.238;2023-08-21T03:16:31;16.67;;;9.57;;
32329;SDS011;18807;52.434;13.238;2023-08-21T03:24:18;16.75;;;10.10;;
32329;SDS011;18807;52.434;13.238;2023-08-21T03:32:17;15.20;;;10.38;;
32329;SDS011;18807;52.434;13.238;2023-08-21T04:20:40;13.55;;;10.63;;
32329;SDS011;18807;52.434;13.238;2023-08-21T04:28:20;11.77;;;10.20;;
32329;SDS011;18807;52.434;13.238;2023-08-21T04:36:15;13.80;;;10.48;;
32329;SDS011;18807;52.434;13.238;2023-08-21T04:52:16;13.95;;;10.82;;
32329;SDS011;18807;52.434;13.238;2023-08-21T04:59:52;12.18;;;10.48;;
32329;SDS011;18807;52.434;13.238;2023-08-21T05:07:31;13.77;;;10.00;;
32329;SDS011;18807;52.434;13.238;2023-08-21T05:15:28;11.63;;;10.30;;
32329;SDS011;18807;52.434;13.238;2023-08-21T05:23:09;11.88;;;9.90;;
32329;SDS011;18807;52.434;13.238;2023-08-21T05:31:08;12.18;;;10.75;;
32329;SDS011;18807;52.434;13.238;2023-08-21T05:55:23;12.77;;;11.40;;
32329;SDS011;18807;52.434;13.238;2023-08-21T06:03:06;14.63;;;11.38;;
32329;SDS011;18807;52.434;13.238;2023-08-21T06:11:06;12.93;;;11.50;;
32329;SDS011;18807;52.434;13.238;2023-08-21T06:18:42;15.30;;;12.95;;
32329;SDS011;18807;52.434;13.238;2023-08-21T06:26:44;14.25;;;12.45;;
32329;SDS011;18807;52.434;13.238;2023-08-21T06:35:18;12.07;;;10.13;;
32329;SDS011;18807;52.434;13.238;2023-08-21T07:00:02;14.10;;;9.07;;
32329;SDS011;18807;52.434;13.238;2023-08-21T07:08:05;8.73;;;7.40;;
32329;SDS011;18807;52.434;13.238;2023-08-21T07:16:03;7.63;;;5.97;;
32329;SDS011;18807;52.434;13.238;2023-08-21T07:23:52;8.23;;;6.63;;
32329;SDS011;18807;52.434;13.238;2023-08-21T07:31:37;9.77;;;5.95;;
32329;SDS011;18807;52.434;13.238;2023-08-21T07:39:11;7.75;;;5.25;;
32329;SDS011;18807;52.434;13.238;2023-08-21T07:55:20;7.77;;;4.33;;
32329;SDS011;18807;52.434;13.238;2023-08-21T08:03:18;5.13;;;4.35;;
32329;SDS011;18807;52.434;13.238;2023-08-21T08:11:38;5.80;;;3.75;;
32329;SDS011;18807;52.434;13.238;2023-08-21T08:36:21;6.30;;;3.38;;
32329;SDS011;18807;52.434;13.238;2023-08-21T08:44:13;6.03;;;2.97;;
32329;SDS011;18807;52.434;13.238;2023-08-21T08:52:11;4.72;;;2.50;;
32329;SDS011;18807;52.434;13.238;2023-08-21T09:25:21;3.53;;;0.97;;
32329;SDS011;18807;52.434;13.238;2023-08-21T09:33:31;1.50;;;1.05;;
32329;SDS011;18807;52.434;13.238;2023-08-21T09:41:07;3.72;;;1.20;;
32329;SDS011;18807;52.434;13.238;2023-08-21T09:48:53;4.38;;;1.23;;
32329;SDS011;18807;52.434;13.238;2023-08-21T09:56:43;2.80;;;0.95;;
32329;SDS011;18807;52.434;13.238;2023-08-21T10:04:22;1.85;;;1.00;;
32329;SDS011;18807;52.434;13.238;2023-08-21T10:12:06;2.45;;;1.20;;
32329;SDS011;18807;52.434;13.238;2023-08-21T10:20:20;4.65;;;1.60;;
32329;SDS011;18807;52.434;13.238;2023-08-21T10:28:30;2.28;;;1.25;;
32329;SDS011;18807;52.434;13.238;2023-08-21T10:45:30;2.20;;;1.00;;
32329;SDS011;18807;52.434;13.238;2023-08-21T10:53:53;3.95;;;1.10;;
32329;SDS011;18807;52.434;13.238;2023-08-21T11:01:44;1.35;;;1.00;;
32329;SDS011;18807;52.434;13.238;2023-08-21T11:09:52;1.63;;;1.00;;
32329;SDS011;18807;52.434;13.238;2023-08-21T11:17:41;2.58;;;0.95;;
32329;SDS011;18807;52.434;13.238;2023-08-21T11:42:13;2.00;;;0.98;;
32329;SDS011;18807;52.434;13.238;2023-08-21T12:07:18;2.40;;;1.00;;
32329;SDS011;18807;52.434;13.238;2023-08-21T12:15:02;2.45;;;0.80;;
32329;SDS011;18807;52.434;13.238;2023-08-21T12:22:38;2.55;;;0.93;;
32329;SDS011;18807;52.434;13.238;2023-08-21T12:30:38;3.33;;;1.20;;
32329;SDS011;18807;52.434;13.238;2023-08-21T12:38:32;2.22;;;1.23;;
32329;SDS011;18807;52.434;13.238;2023-08-21T12:46:07;3.55;;;1.30;;
32329;SDS011;18807;52.434;13.238;2023-08-21T12:53:47;5.25;;;1.17;;
32329;SDS011;18807;52.434;13.238;2023-08-21T13:01:42;3.28;;;0.93;;
32329;SDS011;18807;52.434;13.238;2023-08-21T13:09:21;1.35;;;0.93;;
32329;SDS011;18807;52.434;13.238;2023-08-21T13:17:18;3.28;;;0.90;;
32329;SDS011;18807;52.434;13.238;2023-08-21T13:24:57;2.50;;;1.00;;
32329;SDS011;18807;52.434;13.238;2023-08-21T13:33:06;1.75;;;1.00;;
32329;SDS011;18807;52.434;13.238;2023-08-21T13:40:45;3.65;;;1.00;;
32329;SDS011;18807;52.434;13.238;2023-08-21T13:48:46;1.98;;;1.02;;
32329;SDS011;18807;52.434;13.238;2023-08-21T13:56:23;1.90;;;0.80;;
32329;SDS011;18807;52.434;13.238;2023-08-21T14:04:07;3.17;;;0.93;;
32329;SDS011;18807;52.434;13.238;2023-08-21T14:27:40;7.60;;;1.00;;
32329;SDS011;18807;52.434;13.238;2023-08-21T14:35:36;3.35;;;0.77;;
32329;SDS011;18807;52.434;13.238;2023-08-21T14:43:19;2.92;;;0.90;;
32329;SDS011;18807;52.434;13.238;2023-08-21T14:51:00;0.93;;;0.70;;
32329;SDS011;18807;52.434;13.238;2023-08-21T15:16:21;5.25;;;1.05;;
32329;SDS011;18807;52.434;13.238;2023-08-21T15:24:28;3.33;;;0.93;;
32329;SDS011;18807;52.434;13.238;2023-08-21T15:41:02;3.10;;;1.15;;
32329;SDS011;18807;52.434;13.238;2023-08-21T15:48:42;2.45;;;1.00;;
32329;SDS011;18807;52.434;13.238;2023-08-21T16:13:21;2.92;;;0.90;;
32329;SDS011;18807;52.434;13.238;2023-08-21T16:21:05;2.00;;;1.10;;
32329;SDS011;18807;52.434;13.238;2023-08-21T16:36:40;1.45;;;1.00;;
32329;SDS011;18807;52.434;13.238;2023-08-21T17:01:20;1.58;;;1.00;;
32329;SDS011;18807;52.434;13.238;2023-08-21T17:09:42;2.75;;;1.58;;
32329;SDS011;18807;52.434;13.238;2023-08-21T17:18:05;2.47;;;1.17;;
32329;SDS011;18807;52.434;13.238;2023-08-21T17:25:59;2.75;;;1.20;;
32329;SDS011;18807;52.434;13.238;2023-08-21T17:42:20;2.38;;;1.42;;
32329;SDS011;18807;52.434;13.238;2023-08-21T17:49:59;2.38;;;1.10;;
32329;SDS011;18807;52.434;13.238;2023-08-21T18:06:11;1.70;;;1.07;;
32329;SDS011;18807;52.434;13.238;2023-08-21T18:14:05;1.77;;;1.20;;
32329;SDS011;18807;52.434;13.238;2023-08-21T18:21:41;3.25;;;1.40;;
32329;SDS011;18807;52.434;13.238;2023-08-21T18:38:03;2.80;;;1.35;;
32329;SDS011;18807;52.434;13.238;2023-08-21T18:46:27;1.57;;;1.43;;
32329;SDS011;18807;52.434;13.238;2023-08-21T18:54:17;2.60;;;1.70;;
32329;SDS011;18807;52.434;13.238;2023-08-21T19:02:19;2.50;;;1.40;;
32329;SDS011;18807;52.434;13.238;2023-08-21T19:18:31;6.45;;;1.88;;
32329;SDS011;18807;52.434;13.238;2023-08-21T19:26:20;6.07;;;2.88;;
32329;SDS011;18807;52.434;13.238;2023-08-21T19:34:28;4.47;;;2.30;;
32329;SDS011;18807;52.434;13.238;2023-08-21T19:42:18;2.85;;;1.70;;
32329;SDS011;18807;52.434;13.238;2023-08-21T19:50:25;3.15;;;1.17;;
32329;SDS011;18807;52.434;13.238;2023-08-21T20:15:26;2.47;;;1.30;;
32329;SDS011;18807;52.434;13.238;2023-08-21T20:23:44;2.00;;;1.60;;
32329;SDS011;18807;52.434;13.238;2023-08-21T20:32:03;1.42;;;1.30;;
32329;SDS011;18807;52.434;13.238;2023-08-21T20:40:03;3.85;;;1.58;;
32329;SDS011;18807;52.434;13.238;2023-08-21T20:56:08;3.05;;;2.00;;
32329;SDS011;18807;52.434;13.238;2023-08-21T21:04:29;2.53;;;1.60;;
32329;SDS011;18807;52.434;13.238;2023-08-21T21:12:52;3.63;;;1.95;;
32329;SDS011;18807;52.434;13.238;2023-08-21T21:21:09;3.17;;;1.65;;
32329;SDS011;18807;52.434;13.238;2023-08-21T21:29:12;3.13;;;1.55;;
32329;SDS011;18807;52.434;13.238;2023-08-21T21:37:13;2.97;;;1.70;;
32329;SDS011;18807;52.434;13.238;2023-08-21T21:45:07;3.17;;;1.80;;
32329;SDS011;18807;52.434;13.238;2023-08-21T21:53:22;2.80;;;1.67;;
32329;SDS011;18807;52.434;13.238;2023-08-21T22:01:15;1.80;;;1.42;;
32329;SDS011;18807;52.434;13.238;2023-08-21T22:09:23;4.90;;;1.80;;
32329;SDS011;18807;52.434;13.238;2023-08-21T22:34:16;3.15;;;1.88;;
32329;SDS011;18807;52.434;13.238;2023-08-21T22:50:42;2.03;;;1.77;;
32329;SDS011;18807;52.434;13.238;2023-08-21T23:06:48;3.42;;;1.73;;
32329;SDS011;18807;52.434;13.238;2023-08-21T23:14:42;4.57;;;1.70;;
32329;SDS011;18807;52.434;13.238;2023-08-21T23:22:21;3.80;;;1.67;;
32329;SDS011;18807;52.434;13.238;2023-08-21T23:30:04;3.13;;;1.70;;
32329;SDS011;18807;52.434;13.238;2023-08-21T23:54:37;3.80;;;2.10;;
